aviador You're here:

UKOO Decoded Metar

ODESSA in UKRAINE
Report Time2018-04-26 01:30:00
UTC Time2018-04-26 01:52:29
Flight Rules vfr VFR
Wind190° at 4 kt
W.Decomp.*RWY 16: 3.6 kt HW 1.8 kt RCW
W.Rank190° ranks 11
Current wind is below 190° avg. (9.0)
Visibility9999 m
Phenomena:N/A
Clouds:N/A
Expected CloudBase > 800 ft AGL from Temp-Dew spread
CeilingNone
Temp12°C (ISA -3)
Dew Point10°C (88% RH)
AAT10.6°C
QNH1012 hPa
Density Alt-16 ft
Elevation115 ft
Report Wrong Elevation
Raw Report
METAR UKOO 260130Z 19002MPS CAVOK 12/10 Q1012 R16/090060 NOSIG=

Extra information for UKOO:More info

Metar Taf Metar & Taf Last 4 Metars F.Rules Stats Wind Profile Meteogram Temp Stats Airport Information Weather charts Add Link Nearby VenuesMetar ALERT Operation Metar Decoded Social comments